Time;durP1;ratioP1;P1;durP2;ratioP2;P2;SDS_P1;SDS_P2;PMS_P1;PMS_P2;Temp;Humidity;BMP_temperature;BMP_pressure;BME280_temperature;BME280_humidity;BME280_pressure;Samples;Min_cycle;Max_cycle;Signal;HPM_P1;HPM_P2
2023/05/16 00:01:50;;;;;;;8.27;7.57;;;13.60;99.90;;;;;;4960461;28;20756;-67
2023/05/16 00:04:16;;;;;;;8.50;7.70;;;13.50;99.90;;;;;;4959937;28;20212;-67
2023/05/16 00:06:42;;;;;;;8.48;7.78;;;13.60;99.90;;;;;;4958054;28;20448;-67
2023/05/16 00:09:08;;;;;;;8.63;7.80;;;13.40;99.90;;;;;;4961368;28;20567;-67
2023/05/16 00:11:33;;;;;;;8.30;7.37;;;13.60;99.90;;;;;;4959624;28;20208;-67
2023/05/16 00:14:00;;;;;;;10.50;8.50;;;13.40;99.90;;;;;;4958634;28;20176;-67
2023/05/16 00:16:28;;;;;;;9.80;8.25;;;13.60;99.90;;;;;;4961278;28;20224;-70
2023/05/16 00:18:53;;;;;;;9.25;8.40;;;13.70;99.90;;;;;;4956206;28;20192;-70
2023/05/16 00:21:19;;;;;;;9.30;8.43;;;13.50;99.90;;;;;;4953755;28;20432;-68
2023/05/16 00:23:45;;;;;;;9.30;8.00;;;13.60;99.90;;;;;;4958892;28;20200;-70
2023/05/16 00:26:10;;;;;;;8.33;7.20;;;13.50;99.90;;;;;;4959849;28;20542;-68
2023/05/16 00:28:36;;;;;;;9.07;8.27;;;13.50;99.90;;;;;;4963596;28;20215;-71
2023/05/16 00:31:02;;;;;;;9.37;8.57;;;13.70;99.90;;;;;;4961635;28;20700;-69
2023/05/16 00:33:27;;;;;;;9.07;8.17;;;13.80;99.90;;;;;;4959974;28;20598;-68
2023/05/16 00:35:53;;;;;;;11.23;9.97;;;13.10;99.90;;;;;;4957872;28;20185;-70
2023/05/16 00:38:19;;;;;;;10.00;9.00;;;13.40;99.90;;;;;;4956105;28;20195;-68
2023/05/16 00:40:45;;;;;;;9.80;8.90;;;13.40;99.90;;;;;;4944219;28;20295;-68
2023/05/16 00:43:11;;;;;;;12.45;11.35;;;13.70;99.90;;;;;;4963105;28;20532;-69
2023/05/16 00:45:36;;;;;;;12.20;11.10;;;13.70;99.90;;;;;;4956776;28;20198;-68
2023/05/16 00:48:02;;;;;;;13.63;12.33;;;13.80;99.90;;;;;;4960308;28;20296;-68
2023/05/16 00:50:28;;;;;;;16.05;14.45;;;13.90;99.90;;;;;;4959328;28;20279;-70
2023/05/16 00:52:54;;;;;;;14.10;12.70;;;14.00;99.90;;;;;;4964953;28;20276;-69
2023/05/16 00:55:20;;;;;;;14.73;13.03;;;14.10;99.90;;;;;;4959188;28;20189;-68
2023/05/16 00:57:45;;;;;;;17.23;15.43;;;13.90;99.90;;;;;;4962280;28;20928;-68
2023/05/16 01:00:14;;;;;;;16.10;14.50;;;14.10;99.90;;;;;;4960382;28;20186;-67
2023/05/16 01:02:39;;;;;;;16.90;15.20;;;14.00;99.90;;;;;;4961805;28;20672;-67
2023/05/16 01:05:07;;;;;;;16.57;14.93;;;14.30;99.90;;;;;;4958547;28;20192;-67
2023/05/16 01:07:33;;;;;;;18.63;16.63;;;13.90;99.90;;;;;;4940881;28;20452;-67
2023/05/16 01:10:00;;;;;;;15.90;14.40;;;14.10;99.90;;;;;;4955522;28;20228;-67
2023/05/16 01:12:31;;;;;;;17.40;15.50;;;14.20;99.90;;;;;;4964269;28;20202;-67
2023/05/16 01:15:14;;;;;;;17.00;15.30;;;14.00;99.90;;;;;;4956745;28;20677;-67
2023/05/16 01:18:30;;;;;;;19.75;17.58;;;14.20;99.90;;;;;;4954902;28;20749;-67
2023/05/16 01:21:02;;;;;;;18.35;16.55;;;14.10;99.90;;;;;;4857229;29;20311;-67
2023/05/16 01:23:56;;;;;;;17.75;15.93;;;14.50;99.90;;;;;;4941206;28;20275;-67
2023/05/16 01:26:26;;;;;;;20.13;17.52;;;14.10;99.90;;;;;;4956262;28;20188;-67
2023/05/16 01:28:53;;;;;;;20.00;17.88;;;14.20;99.90;;;;;;4958764;28;20335;-67
2023/05/16 01:31:20;;;;;;;22.63;18.77;;;13.80;99.90;;;;;;4956414;28;20228;-67
2023/05/16 01:33:46;;;;;;;20.52;18.33;;;13.70;99.90;;;;;;4958253;28;20192;-67
2023/05/16 01:36:43;;;;;;;19.10;17.00;;;13.90;99.90;;;;;;4950274;28;20185;-67
2023/05/16 01:39:42;;;;;;;20.73;18.33;;;14.00;99.90;;;;;;4959668;28;20451;-67
2023/05/16 01:42:11;;;;;;;21.20;18.90;;;14.00;99.90;;;;;;4952459;28;20341;-67
2023/05/16 01:44:42;;;;;;;22.30;20.00;;;13.80;99.90;;;;;;4941189;28;20192;-67
2023/05/16 01:47:12;;;;;;;24.05;21.40;;;13.90;99.90;;;;;;4955279;28;20184;-67
2023/05/16 01:49:56;;;;;;;22.75;20.42;;;13.70;99.90;;;;;;4960322;28;20616;-67
2023/05/16 01:52:48;;;;;;;23.92;20.00;;;13.70;99.90;;;;;;4961099;28;20267;-67
2023/05/16 01:55:19;;;;;;;25.75;22.88;;;13.70;99.90;;;;;;4959596;28;20192;-67
2023/05/16 01:57:47;;;;;;;23.27;20.75;;;13.90;99.90;;;;;;4959513;28;20197;-67
2023/05/16 02:00:13;;;;;;;25.05;22.23;;;13.90;99.90;;;;;;4957361;28;20180;-69
2023/05/16 02:02:39;;;;;;;25.92;20.98;;;13.50;99.90;;;;;;4944165;28;20200;-67
2023/05/16 02:05:05;;;;;;;23.83;20.67;;;13.60;99.90;;;;;;4958963;28;20239;-67
2023/05/16 02:07:31;;;;;;;24.38;21.10;;;13.70;99.90;;;;;;4959640;28;20192;-67
2023/05/16 02:09:56;;;;;;;25.77;22.97;;;13.50;99.90;;;;;;4956676;28;20180;-67
2023/05/16 02:12:23;;;;;;;24.83;20.80;;;13.50;99.90;;;;;;4953952;28;20447;-67
2023/05/16 02:14:49;;;;;;;30.40;21.58;;;13.40;99.90;;;;;;4951393;28;20189;-67
2023/05/16 02:17:14;;;;;;;27.10;22.17;;;13.50;99.90;;;;;;4961545;28;20200;-67
2023/05/16 02:19:40;;;;;;;27.27;21.80;;;13.60;99.90;;;;;;4936052;28;20192;-67
2023/05/16 02:22:06;;;;;;;25.10;21.13;;;13.30;99.90;;;;;;4954528;28;20466;-67
2023/05/16 02:24:31;;;;;;;26.60;22.20;;;13.60;99.90;;;;;;4936483;28;20204;-67
2023/05/16 02:26:57;;;;;;;27.73;22.70;;;13.40;99.90;;;;;;4960439;28;20199;-67
2023/05/16 02:29:22;;;;;;;25.30;21.63;;;13.50;99.90;;;;;;4956026;28;20212;-68
2023/05/16 02:31:48;;;;;;;23.87;20.73;;;13.30;99.90;;;;;;4959436;28;20216;-67
2023/05/16 02:34:14;;;;;;;24.87;21.37;;;13.50;99.90;;;;;;4953676;28;20860;-67
2023/05/16 02:36:40;;;;;;;26.75;23.05;;;13.60;99.90;;;;;;4954862;28;20275;-67
2023/05/16 02:39:07;;;;;;;27.80;22.97;;;13.70;99.90;;;;;;4955139;28;20782;-67
2023/05/16 02:41:33;;;;;;;27.27;22.60;;;13.40;99.90;;;;;;4941831;28;20295;-67
2023/05/16 02:43:58;;;;;;;32.57;24.47;;;13.40;99.90;;;;;;4952148;28;20239;-67
2023/05/16 02:46:33;;;;;;;27.17;22.23;;;13.60;99.90;;;;;;4958567;28;20188;-67
2023/05/16 02:49:00;;;;;;;28.98;23.98;;;13.30;99.90;;;;;;4958922;28;20242;-67
2023/05/16 02:51:27;;;;;;;30.45;23.83;;;13.20;99.90;;;;;;4956014;28;21256;-67
2023/05/16 02:53:55;;;;;;;31.60;24.52;;;13.00;99.90;;;;;;4956314;28;20709;-67
2023/05/16 02:56:21;;;;;;;29.80;23.85;;;13.20;99.90;;;;;;4960165;28;20298;-67
2023/05/16 02:58:48;;;;;;;28.37;23.70;;;13.50;99.90;;;;;;4939574;28;20189;-67
2023/05/16 03:01:15;;;;;;;30.48;24.35;;;13.60;99.90;;;;;;4944155;28;20193;-69
2023/05/16 03:03:41;;;;;;;27.95;21.80;;;13.30;99.90;;;;;;4958053;28;20598;-67
2023/05/16 03:06:06;;;;;;;31.97;23.80;;;13.20;99.90;;;;;;4954134;28;20710;-67
2023/05/16 03:08:33;;;;;;;30.60;23.67;;;13.50;99.90;;;;;;4959576;28;20216;-67
2023/05/16 03:10:59;;;;;;;29.58;23.15;;;13.30;99.90;;;;;;4957998;28;20209;-67
2023/05/16 03:13:25;;;;;;;33.20;25.57;;;13.60;99.90;;;;;;4937427;28;20235;-67
2023/05/16 03:15:51;;;;;;;31.80;24.37;;;13.30;99.90;;;;;;4955022;28;20452;-67
2023/05/16 03:18:16;;;;;;;32.90;23.70;;;13.30;99.90;;;;;;4955384;28;20282;-67
2023/05/16 03:20:42;;;;;;;30.63;23.10;;;13.10;99.90;;;;;;4938809;28;20686;-67
2023/05/16 03:23:08;;;;;;;29.87;25.10;;;13.20;99.90;;;;;;4958871;28;20937;-67
2023/05/16 03:25:35;;;;;;;34.07;24.60;;;13.20;99.90;;;;;;4958092;28;20568;-67
2023/05/16 03:28:01;;;;;;;31.00;24.95;;;13.30;99.90;;;;;;4943154;28;20644;-67
2023/05/16 03:30:26;;;;;;;30.55;25.40;;;13.10;99.90;;;;;;4955535;28;20212;-67
2023/05/16 03:32:52;;;;;;;30.37;23.80;;;13.30;99.90;;;;;;4955127;28;20283;-67
2023/05/16 03:35:18;;;;;;;33.50;25.77;;;13.30;99.90;;;;;;4960944;28;20641;-67
2023/05/16 03:37:43;;;;;;;31.50;25.27;;;13.20;99.90;;;;;;4950373;28;20192;-67
2023/05/16 03:40:10;;;;;;;31.90;26.53;;;13.20;99.90;;;;;;4933963;28;20556;-67
2023/05/16 03:42:35;;;;;;;33.70;25.75;;;13.00;99.90;;;;;;4956818;28;20196;-67
2023/05/16 03:45:01;;;;;;;36.63;25.57;;;13.10;99.90;;;;;;4943681;28;20185;-67
2023/05/16 03:47:30;;;;;;;40.83;29.60;;;13.30;99.90;;;;;;4959420;28;20216;-67
2023/05/16 03:49:55;;;;;;;34.40;27.27;;;13.00;99.90;;;;;;4962798;28;20268;-67
2023/05/16 03:52:21;;;;;;;36.20;28.03;;;13.10;99.90;;;;;;4957742;28;20267;-67
2023/05/16 03:54:47;;;;;;;38.43;26.70;;;13.00;99.90;;;;;;4956264;28;20247;-67
2023/05/16 03:57:12;;;;;;;34.47;27.10;;;12.80;99.90;;;;;;4961584;28;20525;-67
2023/05/16 03:59:38;;;;;;;37.80;27.43;;;12.90;99.90;;;;;;4940151;28;20821;-67
2023/05/16 04:02:04;;;;;;;37.07;27.60;;;13.10;99.90;;;;;;4956352;28;20211;-67
2023/05/16 04:04:30;;;;;;;36.47;27.42;;;13.10;99.90;;;;;;4956536;28;20193;-67
2023/05/16 04:06:55;;;;;;;38.20;28.60;;;12.90;99.90;;;;;;4959084;28;20279;-69
2023/05/16 04:09:21;;;;;;;40.27;29.13;;;13.20;99.90;;;;;;4959404;28;20208;-69
2023/05/16 04:11:47;;;;;;;35.40;25.63;;;13.10;99.90;;;;;;4960139;28;20209;-68
2023/05/16 04:14:14;;;;;;;38.10;27.47;;;13.30;99.90;;;;;;4962667;28;20239;-68
2023/05/16 04:16:40;;;;;;;35.67;28.23;;;13.20;99.90;;;;;;4963067;28;20448;-68
2023/05/16 04:19:06;;;;;;;39.03;29.35;;;13.40;99.90;;;;;;4960433;28;20235;-68
2023/05/16 04:21:32;;;;;;;34.67;27.20;;;13.20;99.90;;;;;;4958140;28;20685;-68
2023/05/16 04:23:58;;;;;;;38.67;28.50;;;13.40;99.90;;;;;;4955447;28;20209;-68
2023/05/16 04:26:23;;;;;;;38.63;29.07;;;13.40;99.90;;;;;;4960156;28;20743;-68
2023/05/16 04:28:49;;;;;;;39.33;27.80;;;13.30;99.90;;;;;;4953296;28;20732;-70
2023/05/16 04:31:15;;;;;;;37.97;26.87;;;13.30;99.90;;;;;;4959296;28;20196;-68
2023/05/16 04:33:41;;;;;;;36.57;27.97;;;13.50;99.90;;;;;;4960053;28;20435;-68
2023/05/16 04:36:07;;;;;;;35.97;27.93;;;13.50;99.90;;;;;;4957177;28;20260;-68
2023/05/16 04:38:33;;;;;;;39.93;29.93;;;13.70;99.90;;;;;;4955805;28;20452;-69
2023/05/16 04:40:58;;;;;;;41.55;29.45;;;13.70;99.90;;;;;;4962196;28;20460;-69
2023/05/16 04:43:25;;;;;;;38.63;28.33;;;13.40;99.90;;;;;;4959475;28;20184;-71
2023/05/16 04:45:52;;;;;;;41.10;28.65;;;13.40;99.90;;;;;;4959745;28;20180;-68
2023/05/16 04:48:18;;;;;;;36.50;27.10;;;13.10;99.90;;;;;;4937523;28;20291;-68
2023/05/16 04:50:44;;;;;;;39.90;29.53;;;13.70;99.90;;;;;;4959699;28;20351;-66
2023/05/16 04:53:10;;;;;;;37.20;27.50;;;13.50;99.90;;;;;;4934764;28;20204;-65
2023/05/16 04:55:35;;;;;;;37.73;28.70;;;13.70;99.90;;;;;;4954388;28;20193;-65
2023/05/16 04:58:01;;;;;;;39.60;29.00;;;13.30;99.90;;;;;;4953455;28;20251;-66
2023/05/16 05:00:27;;;;;;;38.33;27.80;;;13.60;99.90;;;;;;4956839;28;20468;-66
2023/05/16 05:02:53;;;;;;;38.30;28.27;;;13.70;99.90;;;;;;4956453;28;20188;-67
2023/05/16 05:05:18;;;;;;;37.30;28.93;;;13.80;99.90;;;;;;4953215;28;20188;-66
2023/05/16 05:07:44;;;;;;;38.20;27.90;;;13.60;99.90;;;;;;4953824;28;20185;-67
2023/05/16 05:10:10;;;;;;;37.47;27.90;;;13.50;99.90;;;;;;4956507;28;20516;-66
2023/05/16 05:12:36;;;;;;;40.00;28.23;;;13.50;99.90;;;;;;4958534;28;20454;-66
2023/05/16 05:15:02;;;;;;;36.30;28.00;;;13.50;99.90;;;;;;4958236;28;20440;-66
2023/05/16 05:17:28;;;;;;;38.88;28.15;;;13.70;99.90;;;;;;4937630;28;20693;-66
2023/05/16 05:19:54;;;;;;;38.65;28.23;;;13.90;99.90;;;;;;4955686;28;20188;-67
2023/05/16 05:22:20;;;;;;;35.17;26.13;;;13.70;99.90;;;;;;4957167;28;20204;-66
2023/05/16 05:24:45;;;;;;;35.93;27.00;;;13.80;99.90;;;;;;4953516;28;20682;-66
2023/05/16 05:27:11;;;;;;;32.00;26.03;;;13.80;99.90;;;;;;4952710;28;20220;-67
2023/05/16 05:29:37;;;;;;;32.67;24.67;;;13.90;99.90;;;;;;4960048;28;20478;-74
2023/05/16 05:32:03;;;;;;;36.63;25.93;;;13.90;99.90;;;;;;4960582;28;20515;-66
2023/05/16 05:34:29;;;;;;;31.77;25.55;;;14.00;99.90;;;;;;4964349;28;20208;-67
2023/05/16 05:36:55;;;;;;;35.03;26.52;;;14.10;99.90;;;;;;4957262;28;20846;-65
2023/05/16 05:39:21;;;;;;;32.77;22.83;;;14.10;99.90;;;;;;4953615;28;20181;-65
2023/05/16 05:41:46;;;;;;;35.87;25.70;;;14.30;99.90;;;;;;4954488;28;20814;-67
2023/05/16 05:44:12;;;;;;;34.50;27.03;;;14.30;99.90;;;;;;4955484;28;20452;-66
2023/05/16 05:46:38;;;;;;;29.37;23.90;;;14.00;99.90;;;;;;4954736;28;20895;-66
2023/05/16 05:49:04;;;;;;;33.23;27.10;;;14.20;99.90;;;;;;4956370;28;20507;-68
2023/05/16 05:51:30;;;;;;;32.95;25.70;;;14.30;99.90;;;;;;4957854;28;20697;-67
2023/05/16 05:53:56;;;;;;;35.70;26.70;;;14.20;99.90;;;;;;4955256;28;20221;-67
2023/05/16 05:56:23;;;;;;;36.07;26.10;;;14.40;99.90;;;;;;4960104;28;20960;-68
2023/05/16 05:58:49;;;;;;;29.65;23.80;;;14.00;99.90;;;;;;4961287;28;20597;-67
2023/05/16 06:01:15;;;;;;;36.90;27.30;;;14.10;99.90;;;;;;4957546;28;20604;-67
2023/05/16 06:03:41;;;;;;;35.40;27.07;;;14.40;99.90;;;;;;4959131;28;20199;-71
2023/05/16 06:06:08;;;;;;;31.92;24.55;;;14.20;99.90;;;;;;4962575;28;20467;-72
2023/05/16 06:08:34;;;;;;;31.00;23.40;;;14.10;99.90;;;;;;4959896;28;20686;-74
2023/05/16 06:11:00;;;;;;;35.53;26.40;;;14.30;99.90;;;;;;4960375;28;20228;-71
2023/05/16 06:13:26;;;;;;;28.08;22.05;;;14.40;99.90;;;;;;4963157;28;20482;-76
2023/05/16 06:15:53;;;;;;;25.80;20.80;;;14.60;99.90;;;;;;4963609;28;20185;-70
2023/05/16 06:18:19;;;;;;;29.65;21.90;;;14.70;99.90;;;;;;4955639;28;20259;-65
2023/05/16 06:20:45;;;;;;;30.88;25.60;;;14.90;99.90;;;;;;4958571;28;20212;-68
2023/05/16 06:23:11;;;;;;;29.93;24.40;;;15.10;99.90;;;;;;4954877;28;20631;-71
2023/05/16 06:25:37;;;;;;;26.15;23.15;;;15.00;99.90;;;;;;4956244;28;20706;-70
2023/05/16 06:28:02;;;;;;;33.80;25.30;;;14.70;99.90;;;;;;4955434;28;20304;-70
2023/05/16 06:30:28;;;;;;;28.83;23.67;;;14.70;99.90;;;;;;4959921;28;20211;-69
2023/05/16 06:32:53;;;;;;;31.53;24.43;;;14.80;99.90;;;;;;4954571;28;20670;-72
2023/05/16 06:35:19;;;;;;;31.97;24.37;;;14.70;99.90;;;;;;4957956;28;20608;-71
2023/05/16 06:37:45;;;;;;;31.80;24.20;;;14.50;99.90;;;;;;4940650;28;20541;-65
2023/05/16 06:40:11;;;;;;;31.43;24.83;;;14.20;99.90;;;;;;4960188;28;20180;-66
2023/05/16 06:42:37;;;;;;;28.17;23.95;;;14.50;99.90;;;;;;4955157;28;20218;-66
2023/05/16 06:45:02;;;;;;;30.10;22.87;;;14.50;99.90;;;;;;4957209;28;20749;-71
2023/05/16 06:47:28;;;;;;;27.57;22.80;;;14.20;99.90;;;;;;4964319;28;20184;-76
2023/05/16 06:49:54;;;;;;;29.37;23.40;;;14.30;99.90;;;;;;4960743;28;20312;-69
2023/05/16 06:52:20;;;;;;;28.30;24.20;;;14.30;99.90;;;;;;4955455;28;20645;-67
2023/05/16 06:54:46;;;;;;;27.60;22.33;;;14.30;99.90;;;;;;4956622;28;20191;-67
2023/05/16 06:57:12;;;;;;;29.63;23.50;;;14.60;99.90;;;;;;4947539;28;20184;-68
2023/05/16 06:59:38;;;;;;;28.48;21.15;;;14.30;99.90;;;;;;4953082;28;20188;-67
2023/05/16 07:02:04;;;;;;;28.30;21.73;;;14.10;99.90;;;;;;4953593;28;20279;-67
2023/05/16 07:04:29;;;;;;;27.45;22.33;;;13.80;99.90;;;;;;4940381;28;20220;-67
2023/05/16 07:06:55;;;;;;;26.60;22.17;;;14.30;99.90;;;;;;4957571;28;20696;-67
2023/05/16 07:09:21;;;;;;;26.40;21.67;;;14.20;99.90;;;;;;4955467;28;20642;-67
2023/05/16 07:11:46;;;;;;;27.47;20.83;;;14.40;99.90;;;;;;4959508;28;20219;-69
2023/05/16 07:14:12;;;;;;;26.70;21.30;;;14.30;99.90;;;;;;4957161;28;20188;-69
2023/05/16 07:16:37;;;;;;;26.50;21.20;;;14.40;99.90;;;;;;4957647;28;20188;-69
2023/05/16 07:19:03;;;;;;;23.03;18.80;;;14.70;99.90;;;;;;4956866;28;20188;-64
2023/05/16 07:21:29;;;;;;;25.40;20.30;;;14.50;99.90;;;;;;4956792;28;20215;-65
2023/05/16 07:23:54;;;;;;;24.00;19.33;;;14.80;99.90;;;;;;4961511;28;20209;-64
2023/05/16 07:26:22;;;;;;;19.60;16.50;;;15.00;99.90;;;;;;4960385;28;20184;-64
2023/05/16 07:28:49;;;;;;;21.10;18.25;;;14.90;99.90;;;;;;4964233;28;20677;-67
2023/05/16 07:31:16;;;;;;;19.42;17.00;;;15.00;99.90;;;;;;4961431;28;20291;-69
2023/05/16 07:33:41;;;;;;;16.60;13.73;;;14.80;99.90;;;;;;4951683;28;20219;-67
2023/05/16 07:36:07;;;;;;;16.03;12.60;;;15.00;99.90;;;;;;4944701;28;20208;-66
2023/05/16 07:38:33;;;;;;;15.32;13.73;;;15.10;99.90;;;;;;4957969;28;20228;-70
2023/05/16 07:41:00;;;;;;;15.60;13.10;;;15.20;99.90;;;;;;4962112;28;20690;-70
2023/05/16 07:43:25;;;;;;;17.92;15.68;;;15.10;99.90;;;;;;4956135;28;20732;-68
2023/05/16 07:45:51;;;;;;;14.57;11.80;;;14.80;99.90;;;;;;4956546;28;20196;-70
2023/05/16 07:48:17;;;;;;;12.57;11.15;;;15.10;99.90;;;;;;4960267;28;20200;-68
2023/05/16 07:50:43;;;;;;;12.53;11.27;;;15.10;99.90;;;;;;4963192;28;20215;-69
2023/05/16 07:53:08;;;;;;;11.50;9.97;;;15.20;99.90;;;;;;4960678;28;20685;-65
2023/05/16 07:55:34;;;;;;;10.33;9.27;;;14.90;99.90;;;;;;4962900;28;20439;-66
2023/05/16 07:58:00;;;;;;;11.17;10.17;;;15.00;99.90;;;;;;4961538;28;20212;-63
2023/05/16 08:00:25;;;;;;;10.47;9.37;;;15.20;99.90;;;;;;4961877;28;20274;-66
2023/05/16 08:02:51;;;;;;;10.70;9.80;;;14.60;99.90;;;;;;4956535;28;20236;-63
2023/05/16 08:05:17;;;;;;;11.10;9.97;;;14.50;99.90;;;;;;4958941;28;20570;-66
2023/05/16 08:07:42;;;;;;;11.20;10.10;;;14.70;99.90;;;;;;4957279;28;20254;-64
2023/05/16 08:10:08;;;;;;;10.77;9.80;;;14.40;99.90;;;;;;4960541;28;20185;-64
2023/05/16 08:12:34;;;;;;;11.30;9.53;;;14.30;99.90;;;;;;4955859;28;20370;-63
2023/05/16 08:14:59;;;;;;;10.77;9.63;;;14.10;99.90;;;;;;4936827;28;20451;-63
2023/05/16 08:17:25;;;;;;;11.67;10.47;;;14.10;99.90;;;;;;4956771;28;20188;-66
2023/05/16 08:19:51;;;;;;;10.77;9.77;;;14.10;99.90;;;;;;4937205;28;20666;-68
2023/05/16 08:22:16;;;;;;;12.57;11.37;;;14.10;99.90;;;;;;4956064;28;20690;-65
2023/05/16 08:24:42;;;;;;;12.23;11.13;;;13.80;99.90;;;;;;4956489;28;20294;-66
2023/05/16 08:27:08;;;;;;;12.57;11.40;;;13.80;99.90;;;;;;4955013;28;20180;-62
2023/05/16 08:29:33;;;;;;;14.20;12.47;;;14.00;99.90;;;;;;4963334;28;20217;-62
2023/05/16 08:31:59;;;;;;;12.50;10.70;;;13.80;99.90;;;;;;4952431;28;20196;-62
2023/05/16 08:34:24;;;;;;;12.07;10.87;;;13.90;99.90;;;;;;4954913;28;20197;-64
2023/05/16 08:36:50;;;;;;;12.77;11.43;;;14.00;99.90;;;;;;4940478;28;20193;-64
2023/05/16 08:39:15;;;;;;;14.13;11.63;;;13.80;99.90;;;;;;4956626;28;20647;-67
2023/05/16 08:41:41;;;;;;;14.03;12.60;;;14.10;99.90;;;;;;4958119;28;20208;-65
2023/05/16 08:44:09;;;;;;;14.37;12.87;;;14.10;99.90;;;;;;4943003;28;20204;-66
2023/05/16 08:46:35;;;;;;;14.07;12.57;;;13.90;99.90;;;;;;4957171;28;20191;-65
2023/05/16 08:49:06;;;;;;;13.35;12.02;;;14.00;99.90;;;;;;4956234;28;20641;-64
2023/05/16 08:51:35;;;;;;;13.73;12.32;;;13.90;99.90;;;;;;4958350;28;20200;-64
2023/05/16 08:54:07;;;;;;;13.30;11.90;;;14.20;99.90;;;;;;4956951;28;20634;-67
2023/05/16 08:56:34;;;;;;;15.93;14.20;;;14.20;99.90;;;;;;4952279;28;20300;-67
2023/05/16 08:59:02;;;;;;;15.75;14.20;;;14.40;99.90;;;;;;4959439;28;20185;-60
2023/05/16 09:01:28;;;;;;;16.25;14.55;;;14.00;99.90;;;;;;4957880;28;20215;-62
2023/05/16 09:03:55;;;;;;;16.80;14.43;;;13.90;99.90;;;;;;4951937;28;20200;-63
2023/05/16 09:06:21;;;;;;;16.00;13.75;;;13.80;99.90;;;;;;4960206;28;20193;-63
2023/05/16 09:08:46;;;;;;;16.90;15.10;;;14.20;99.90;;;;;;4956832;28;20535;-67
2023/05/16 09:11:12;;;;;;;17.70;15.30;;;14.00;99.90;;;;;;4957185;28;20210;-64
2023/05/16 09:13:38;;;;;;;18.13;16.20;;;14.00;99.90;;;;;;4937612;28;20192;-63
2023/05/16 09:16:22;;;;;;;17.65;14.85;;;14.30;99.90;;;;;;4953013;28;20181;-66
2023/05/16 09:18:56;;;;;;;22.05;17.90;;;14.00;99.90;;;;;;4943607;28;20219;-65
2023/05/16 09:21:31;;;;;;;17.52;15.52;;;14.10;99.90;;;;;;4946609;28;20255;-66
2023/05/16 09:24:04;;;;;;;18.92;15.07;;;14.20;99.90;;;;;;4955789;28;20577;-62
2023/05/16 09:26:32;;;;;;;18.80;16.02;;;14.40;99.90;;;;;;4957423;28;20212;-63
2023/05/16 09:28:57;;;;;;;20.88;16.65;;;14.20;99.90;;;;;;4959663;28;20216;-66
2023/05/16 09:31:36;;;;;;;20.13;17.93;;;14.10;99.90;;;;;;4956419;28;20204;-69
2023/05/16 09:34:03;;;;;;;18.65;16.63;;;14.20;99.90;;;;;;4957583;28;20661;-63
2023/05/16 09:36:31;;;;;;;17.48;15.68;;;14.30;99.90;;;;;;4956527;28;20569;-62
2023/05/16 09:38:56;;;;;;;21.80;18.67;;;14.50;99.90;;;;;;4954723;28;20445;-63
2023/05/16 09:41:22;;;;;;;22.17;16.70;;;14.50;99.90;;;;;;4957299;28;20219;-64
2023/05/16 09:43:48;;;;;;;18.80;16.33;;;14.80;99.90;;;;;;4953171;28;20196;-64
2023/05/16 09:46:14;;;;;;;19.70;17.10;;;14.50;99.90;;;;;;4956376;28;20353;-66
2023/05/16 09:48:46;;;;;;;19.38;16.50;;;14.70;99.90;;;;;;4935221;28;20201;-64
2023/05/16 09:51:13;;;;;;;20.15;17.27;;;14.70;99.90;;;;;;4953857;28;20203;-64
2023/05/16 09:53:40;;;;;;;19.05;16.63;;;15.00;99.90;;;;;;4959047;28;20273;-63
2023/05/16 09:56:09;;;;;;;21.50;19.20;;;15.00;99.90;;;;;;4952672;28;20673;-62
2023/05/16 09:58:37;;;;;;;18.85;16.85;;;15.30;99.90;;;;;;4952978;28;20187;-62
2023/05/16 10:01:03;;;;;;;20.92;17.05;;;15.80;99.90;;;;;;4949714;28;20276;-62
2023/05/16 10:03:30;;;;;;;17.98;16.08;;;16.30;99.90;;;;;;4955437;28;20196;-63
2023/05/16 10:05:56;;;;;;;22.33;15.77;;;16.50;99.90;;;;;;4954776;28;20283;-63
2023/05/16 10:08:24;;;;;;;19.90;16.63;;;16.60;99.90;;;;;;4952728;28;20729;-74
2023/05/16 10:10:56;;;;;;;21.40;18.10;;;16.30;99.90;;;;;;4957537;28;20217;-73
2023/05/16 10:13:27;;;;;;;19.23;17.10;;;16.30;99.90;;;;;;4936641;28;20649;-75
2023/05/16 10:15:55;;;;;;;19.92;15.85;;;16.10;99.90;;;;;;4940852;28;20654;-72
2023/05/16 10:18:23;;;;;;;19.65;15.82;;;15.60;99.90;;;;;;4965545;28;20188;-73
2023/05/16 10:20:52;;;;;;;18.77;16.77;;;15.40;99.90;;;;;;4961560;28;20208;-73
2023/05/16 10:23:20;;;;;;;16.65;14.80;;;15.30;99.90;;;;;;4953359;28;20645;-72
2023/05/16 10:25:47;;;;;;;18.98;16.17;;;15.20;99.90;;;;;;4953832;28;20189;-72
2023/05/16 10:28:16;;;;;;;17.90;14.73;;;15.10;99.90;;;;;;4939589;28;20199;-73
2023/05/16 10:30:44;;;;;;;18.38;15.30;;;15.40;99.90;;;;;;4960925;28;20343;-76
2023/05/16 10:33:12;;;;;;;17.58;15.32;;;15.20;99.90;;;;;;4961452;28;20613;-75
2023/05/16 10:35:38;;;;;;;16.55;14.82;;;15.40;99.90;;;;;;4956936;28;20193;-73
2023/05/16 10:38:06;;;;;;;18.60;16.05;;;15.40;99.90;;;;;;4938267;28;20184;-73
2023/05/16 10:40:33;;;;;;;19.20;15.00;;;15.50;99.90;;;;;;4938684;28;20304;-73
2023/05/16 10:43:00;;;;;;;15.63;14.00;;;15.80;99.90;;;;;;4958463;28;20649;-72
2023/05/16 10:45:26;;;;;;;17.33;14.50;;;15.90;99.90;;;;;;4956005;28;20323;-73
2023/05/16 10:48:00;;;;;;;16.63;13.47;;;16.10;99.90;;;;;;4956610;28;20208;-73
2023/05/16 10:50:45;;;;;;;16.85;15.05;;;16.20;99.90;;;;;;4956920;28;20883;-72
2023/05/16 10:53:31;;;;;;;20.95;15.25;;;16.20;99.90;;;;;;4962278;28;20729;-73
2023/05/16 10:56:00;;;;;;;14.60;13.05;;;15.80;99.90;;;;;;4940195;28;20195;-73
2023/05/16 10:58:37;;;;;;;15.35;13.75;;;16.00;99.90;;;;;;4945901;28;20192;-68
2023/05/16 11:01:23;;;;;;;15.75;13.80;;;15.90;99.90;;;;;;4956415;28;20239;-67
2023/05/16 11:03:57;;;;;;;15.57;13.45;;;15.40;99.90;;;;;;4961578;28;20208;-67
2023/05/16 11:06:34;;;;;;;15.85;13.73;;;15.30;99.90;;;;;;4951888;28;20662;-63
2023/05/16 11:09:09;;;;;;;16.20;14.15;;;15.20;99.90;;;;;;4962143;28;20661;-64
2023/05/16 11:11:56;;;;;;;16.98;13.13;;;15.30;99.90;;;;;;4956948;28;20204;-64
2023/05/16 11:14:36;;;;;;;15.90;12.20;;;15.10;99.90;;;;;;4961574;28;20188;-65
2023/05/16 11:17:09;;;;;;;18.10;13.23;;;15.00;99.90;;;;;;4959692;28;20180;-65
2023/05/16 11:19:42;;;;;;;15.48;12.98;;;14.80;99.90;;;;;;4958187;28;20316;-70
2023/05/16 11:22:28;;;;;;;15.02;12.23;;;14.60;99.90;;;;;;4955361;28;20251;-63
2023/05/16 11:25:05;;;;;;;15.52;12.85;;;14.50;99.90;;;;;;4959686;28;20212;-62
2023/05/16 11:27:36;;;;;;;13.80;11.80;;;14.20;99.90;;;;;;4959232;28;20208;-63
2023/05/16 11:30:04;;;;;;;18.23;13.43;;;13.90;99.90;;;;;;4953883;28;20229;-63
2023/05/16 11:32:33;;;;;;;17.73;13.00;;;13.90;99.90;;;;;;4960501;28;20192;-62
2023/05/16 11:34:59;;;;;;;17.35;12.77;;;14.00;99.90;;;;;;4958282;28;20240;-66
2023/05/16 11:37:24;;;;;;;16.13;12.00;;;13.80;99.90;;;;;;4958949;28;20188;-66
2023/05/16 11:39:50;;;;;;;16.07;12.33;;;13.60;99.90;;;;;;4962466;28;20185;-66
2023/05/16 11:42:16;;;;;;;13.47;10.80;;;13.60;99.90;;;;;;4959893;28;20200;-67
2023/05/16 11:44:43;;;;;;;12.77;11.15;;;14.00;99.90;;;;;;4959748;28;20201;-70
2023/05/16 11:47:09;;;;;;;14.55;10.35;;;13.70;99.90;;;;;;4943833;28;20675;-70
2023/05/16 11:49:35;;;;;;;17.27;12.43;;;13.70;99.90;;;;;;4958275;28;20220;-65
2023/05/16 11:52:01;;;;;;;15.20;9.75;;;13.40;99.90;;;;;;4960717;28;20455;-64
2023/05/16 11:54:28;;;;;;;12.75;10.77;;;13.30;99.90;;;;;;4958149;28;20211;-63
2023/05/16 11:56:53;;;;;;;12.75;9.95;;;13.60;99.90;;;;;;4956724;28;20185;-64
2023/05/16 11:59:19;;;;;;;11.30;10.10;;;13.60;99.90;;;;;;4960902;28;20196;-69
2023/05/16 12:01:48;;;;;;;10.23;9.13;;;13.90;99.90;;;;;;4960692;28;20214;-68
2023/05/16 12:04:15;;;;;;;10.27;8.60;;;13.60;99.90;;;;;;4953390;28;20201;-67
2023/05/16 12:06:44;;;;;;;10.32;8.80;;;13.80;99.90;;;;;;4959600;28;20200;-66
2023/05/16 12:09:14;;;;;;;11.80;9.38;;;13.90;99.90;;;;;;4956866;28;20217;-68
2023/05/16 12:11:41;;;;;;;10.98;8.77;;;14.00;99.90;;;;;;4955701;28;20292;-68
2023/05/16 12:14:09;;;;;;;11.00;9.90;;;13.50;99.90;;;;;;4957564;28;20654;-69
2023/05/16 12:16:36;;;;;;;10.00;9.00;;;13.80;99.90;;;;;;4944568;28;20250;-67
2023/05/16 12:19:04;;;;;;;10.30;8.95;;;13.90;99.90;;;;;;4953556;28;21141;-68
2023/05/16 12:21:34;;;;;;;10.57;9.48;;;13.50;99.90;;;;;;4955178;28;20212;-67
2023/05/16 12:24:00;;;;;;;12.02;10.63;;;13.90;99.90;;;;;;4957438;28;20197;-67
2023/05/16 12:26:29;;;;;;;9.75;8.75;;;14.00;99.90;;;;;;4960530;28;21419;-67
2023/05/16 12:29:04;;;;;;;12.60;9.93;;;14.10;99.90;;;;;;4938139;28;20678;-67
2023/05/16 12:31:35;;;;;;;10.68;8.50;;;13.90;99.90;;;;;;4956411;28;20259;-67